SCBA/BBA METAR and TAF weather

Enter ICAO airport designator
Station Type Date Time Source
SCBA METAR 2023/03/20 21:00 UTC NOAA

SCBA 202100Z 29014KT CAVOK 17/02 Q1017


Station Type Date Time Source
SCBA Decoded METAR 2023/03/20 21:00 UTC NOAA

Balmaceda, Chile (SCBA) 45-55S 071-41W 520M
Mar 20, 2023 - 05:00 PM EDT / 2023.03.20 2100 UTC
Wind: from the WNW (290 degrees) at 16 MPH (14 KT):0
Visibility: greater than 7 mile(s):0
Temperature: 62 F (17 C)
Dew Point: 35 F (2 C)
Relative Humidity: 36%
Pressure (altimeter): 30.03 in. Hg (1017 hPa)
ob: SCBA 202100Z 29014KT CAVOK 17/02 Q1017
cycle: 21

Station Type Date Time Source
SCBA TAF 2023/03/21 06:27 UTC NOAA

TAF SCBA 210317Z 2106/2206 25007KT CAVOK TNM02/2112Z TX20/2119Z
BECMG 2114/2116 30020KT

Example: see airport list